createdAt,value
2019-03-26T00:01:58.203Z,61.52
2019-03-26T00:08:05.059Z,61.24
2019-03-26T00:14:12.571Z,60.73
2019-03-26T00:20:19.397Z,60.46
2019-03-26T00:26:26.008Z,60.26
2019-03-26T00:32:32.731Z,60.32
2019-03-26T00:38:39.454Z,60.18
2019-03-26T00:44:46.023Z,60.19
2019-03-26T00:50:52.802Z,60.41
2019-03-26T00:56:59.715Z,60.67
2019-03-26T01:03:07.356Z,60.48
2019-03-26T01:09:14.055Z,60.28
2019-03-26T01:15:20.662Z,59.76
2019-03-26T01:21:27.429Z,59.24
2019-03-26T01:27:34.256Z,58.50
2019-03-26T01:33:40.776Z,57.95
2019-03-26T01:39:47.351Z,56.93
2019-03-26T01:45:54.104Z,56.42
2019-03-26T01:52:00.908Z,56.49
2019-03-26T01:58:07.772Z,56.54
2019-03-26T02:04:14.428Z,56.26
2019-03-26T02:10:21.070Z,56.68
2019-03-26T02:16:27.919Z,57.04
2019-03-26T02:22:34.567Z,57.13
2019-03-26T02:28:41.142Z,55.71
2019-03-26T02:34:48.024Z,55.59
2019-03-26T02:40:54.548Z,55.44
2019-03-26T02:47:01.165Z,55.86
2019-03-26T02:53:09.046Z,55.93
2019-03-26T02:59:15.667Z,56.29
2019-03-26T03:05:35.196Z,56.62
2019-03-26T03:11:30.604Z,56.39
2019-03-26T03:17:37.146Z,56.96
2019-03-26T03:23:43.663Z,56.85
2019-03-26T03:29:50.211Z,56.64
2019-03-26T03:35:56.760Z,56.26
2019-03-26T03:42:03.470Z,56.53
2019-03-26T03:48:10.690Z,56.87
2019-03-26T03:54:17.881Z,57.29
2019-03-26T04:00:41.310Z,57.36
2019-03-26T04:06:47.925Z,57.69
2019-03-26T04:12:54.464Z,56.89
2019-03-26T04:19:01.005Z,56.35
2019-03-26T04:25:07.563Z,56.46
2019-03-26T04:31:14.053Z,55.85
2019-03-26T04:37:20.683Z,56.04
2019-03-26T04:43:27.277Z,55.99
2019-03-26T04:49:33.855Z,55.73
2019-03-26T04:55:40.409Z,55.88
2019-03-26T05:01:46.891Z,56.15
2019-03-26T05:07:56.755Z,55.72
2019-03-26T05:14:03.312Z,55.59
2019-03-26T05:20:09.892Z,55.89
2019-03-26T05:26:16.420Z,56.67
2019-03-26T05:32:23.007Z,56.93
2019-03-26T05:38:29.621Z,57.47
2019-03-26T05:44:37.458Z,57.42
2019-03-26T05:50:43.990Z,57.70
2019-03-26T05:56:50.536Z,57.68
2019-03-26T06:02:57.081Z,57.59
2019-03-26T06:09:03.970Z,57.22
2019-03-26T06:15:11.372Z,57.05
2019-03-26T06:21:17.867Z,57.16
2019-03-26T06:27:24.403Z,56.76
2019-03-26T06:33:31.000Z,54.00
2019-03-26T06:39:37.540Z,53.02
2019-03-26T06:45:44.086Z,52.81
2019-03-26T06:51:50.681Z,52.43
2019-03-26T06:57:57.315Z,52.91
2019-03-26T07:04:04.062Z,53.09
2019-03-26T07:10:11.329Z,53.32
2019-03-26T07:16:17.829Z,53.50
2019-03-26T07:22:24.380Z,53.29
2019-03-26T07:28:30.945Z,52.71
2019-03-26T07:34:37.637Z,52.47
2019-03-26T07:40:44.276Z,52.26
2019-03-26T07:46:50.945Z,52.17
2019-03-26T07:52:58.017Z,52.59
2019-03-26T07:59:04.562Z,52.54
2019-03-26T08:05:12.077Z,53.91
2019-03-26T08:11:18.677Z,56.74
2019-03-26T08:17:25.264Z,58.11
2019-03-26T08:23:32.112Z,59.17
2019-03-26T08:29:38.737Z,59.24
2019-03-26T08:35:45.339Z,58.41
2019-03-26T08:41:51.970Z,57.83
2019-03-26T08:47:58.494Z,57.21
2019-03-26T08:54:05.155Z,56.74
2019-03-26T09:00:12.361Z,57.02
2019-03-26T09:06:19.031Z,58.60
2019-03-26T09:12:25.599Z,57.45
2019-03-26T09:18:32.118Z,57.00
2019-03-26T09:24:38.661Z,55.21
2019-03-26T09:30:45.238Z,55.97
2019-03-26T09:36:51.886Z,55.90
2019-03-26T09:42:58.441Z,55.74
2019-03-26T09:49:05.078Z,55.31
2019-03-26T09:55:12.196Z,56.15
2019-03-26T10:01:18.700Z,56.62
2019-03-26T10:07:25.214Z,58.03
2019-03-26T10:13:31.938Z,60.67
2019-03-26T10:19:38.570Z,60.13
2019-03-26T10:25:45.079Z,60.96
2019-03-26T10:31:51.917Z,60.31
2019-03-26T10:37:58.685Z,59.31
2019-03-26T10:44:05.290Z,58.60
2019-03-26T10:50:11.984Z,57.98
2019-03-26T10:56:18.531Z,57.54
2019-03-26T11:02:25.056Z,57.01
2019-03-26T11:08:31.630Z,56.09
2019-03-26T11:14:38.226Z,54.48
2019-03-26T11:20:44.781Z,51.77
2019-03-26T11:26:51.702Z,51.39
2019-03-26T11:32:58.391Z,51.45
2019-03-26T11:39:06.242Z,51.01
2019-03-26T11:45:13.884Z,51.05
2019-03-26T11:51:20.408Z,52.42
2019-03-26T11:57:26.985Z,52.59
2019-03-26T12:03:33.543Z,52.26
2019-03-26T12:09:46.110Z,51.54
2019-03-26T12:15:48.425Z,51.25
2019-03-26T12:21:54.961Z,49.69
2019-03-26T12:28:01.571Z,48.37
2019-03-26T12:34:08.341Z,50.23
2019-03-26T12:40:15.232Z,50.72
2019-03-26T12:46:21.779Z,50.68
2019-03-26T12:52:30.134Z,51.61
2019-03-26T12:58:36.894Z,51.72
2019-03-26T13:04:43.406Z,53.94
2019-03-26T13:10:53.845Z,54.82
2019-03-26T13:16:58.568Z,54.95
2019-03-26T13:23:05.327Z,54.88
2019-03-26T13:29:11.892Z,55.28
2019-03-26T13:35:18.655Z,54.55
2019-03-26T13:41:25.163Z,53.98
2019-03-26T13:47:31.786Z,53.55
2019-03-26T13:53:38.377Z,53.18
2019-03-26T13:59:44.955Z,53.77
2019-03-26T14:05:51.553Z,54.41
2019-03-26T14:11:58.142Z,55.18
2019-03-26T14:18:05.014Z,56.50
2019-03-26T14:24:13.321Z,57.18
2019-03-26T14:30:35.259Z,56.95
2019-03-26T14:36:42.057Z,57.76
2019-03-26T14:42:48.855Z,58.95
2019-03-26T14:48:55.455Z,60.62
2019-03-26T14:55:02.553Z,58.65
2019-03-26T15:01:09.264Z,56.79
2019-03-26T15:07:16.079Z,55.83
2019-03-26T15:13:22.663Z,54.77
2019-03-26T15:19:29.245Z,54.74
2019-03-26T15:25:35.914Z,54.24
2019-03-26T15:31:42.556Z,54.69
2019-03-26T15:37:49.152Z,54.81
2019-03-26T15:43:55.773Z,53.43
2019-03-26T15:50:02.412Z,53.24
2019-03-26T15:56:09.311Z,53.46
2019-03-26T16:02:16.019Z,52.96
2019-03-26T16:08:22.591Z,53.35
2019-03-26T16:14:29.293Z,53.48
2019-03-26T16:20:35.907Z,53.42
2019-03-26T16:26:42.458Z,53.33
2019-03-26T16:32:49.079Z,53.53
2019-03-26T16:38:55.702Z,53.69
2019-03-26T16:45:02.237Z,53.52
2019-03-26T16:51:09.776Z,53.07
2019-03-26T16:57:17.767Z,52.93
2019-03-26T17:03:31.133Z,52.85
2019-03-26T17:09:33.061Z,52.78
2019-03-26T17:15:39.775Z,52.83
2019-03-26T17:21:46.407Z,51.72
2019-03-26T17:27:53.080Z,51.76
2019-03-26T17:33:59.772Z,51.44
2019-03-26T17:40:06.806Z,51.63
2019-03-26T17:46:13.560Z,51.81
2019-03-26T17:52:22.617Z,51.82
2019-03-26T17:58:29.780Z,51.98
2019-03-26T18:04:37.000Z,51.97
2019-03-26T18:10:43.682Z,52.00
2019-03-26T18:16:50.503Z,52.13
2019-03-26T18:22:57.301Z,52.09
2019-03-26T18:29:03.958Z,52.49
2019-03-26T18:35:10.743Z,52.82
2019-03-26T18:41:17.308Z,52.89
2019-03-26T18:47:23.996Z,53.00
2019-03-26T18:53:32.946Z,53.15
2019-03-26T18:59:39.510Z,53.40
2019-03-26T19:05:46.053Z,53.77
2019-03-26T19:11:52.799Z,56.42
2019-03-26T19:18:07.411Z,55.56
2019-03-26T19:24:13.997Z,54.71
2019-03-26T19:30:20.559Z,54.28
2019-03-26T19:36:27.203Z,54.09
2019-03-26T19:42:33.890Z,54.02
2019-03-26T19:48:40.480Z,53.92
2019-03-26T19:54:47.084Z,53.44
2019-03-26T20:00:53.844Z,53.13
2019-03-26T20:07:00.435Z,52.91
2019-03-26T20:13:07.293Z,53.09
2019-03-26T20:19:14.473Z,53.08
2019-03-26T20:25:21.197Z,53.29
2019-03-26T20:31:27.896Z,53.59
2019-03-26T20:37:34.552Z,53.58
2019-03-26T20:43:43.536Z,53.79
2019-03-26T20:49:50.303Z,53.86
2019-03-26T20:55:56.933Z,54.01
2019-03-26T21:02:03.494Z,54.04
2019-03-26T21:08:10.124Z,54.27
2019-03-26T21:14:16.804Z,54.31
2019-03-26T21:20:23.512Z,54.36
2019-03-26T21:26:30.156Z,54.42
2019-03-26T21:32:36.734Z,54.52
2019-03-26T21:38:43.414Z,54.63
2019-03-26T21:44:50.071Z,54.62
2019-03-26T21:50:56.633Z,54.66
2019-03-26T21:57:03.358Z,54.95
2019-03-26T22:03:10.071Z,55.11
2019-03-26T22:09:16.621Z,55.16
2019-03-26T22:15:23.314Z,55.29
2019-03-26T22:21:29.823Z,55.37
2019-03-26T22:27:36.372Z,55.40
2019-03-26T22:33:42.935Z,55.58
2019-03-26T22:39:49.494Z,55.73
2019-03-26T22:45:56.070Z,55.79
2019-03-26T22:52:02.659Z,56.02
2019-03-26T22:58:09.196Z,56.17
2019-03-26T23:04:15.790Z,56.39
2019-03-26T23:10:22.603Z,56.88
2019-03-26T23:16:29.312Z,57.38
2019-03-26T23:22:36.002Z,57.71
2019-03-26T23:28:42.973Z,60.51
2019-03-26T23:34:50.969Z,62.22
2019-03-26T23:40:57.897Z,62.46
